createdAt,value
2019-01-21T00:01:18.253Z,-3.20
2019-01-21T00:03:47.172Z,-3.24
2019-01-21T00:06:16.180Z,-3.12
2019-01-21T00:08:45.222Z,-3.10
2019-01-21T00:11:14.171Z,-3.14
2019-01-21T00:13:43.061Z,-3.20
2019-01-21T00:16:12.045Z,-3.10
2019-01-21T00:18:41.046Z,-3.19
2019-01-21T00:21:10.093Z,-3.21
2019-01-21T00:23:38.979Z,-3.22
2019-01-21T00:26:07.979Z,-3.35
2019-01-21T00:28:36.971Z,-3.39
2019-01-21T00:31:05.913Z,-3.46
2019-01-21T00:33:34.814Z,-3.47
2019-01-21T00:36:03.840Z,-3.42
2019-01-21T00:38:32.834Z,-3.50
2019-01-21T00:41:01.742Z,-3.29
2019-01-21T00:43:30.738Z,-3.29
2019-01-21T00:45:59.661Z,-3.36
2019-01-21T00:48:28.727Z,-3.29
2019-01-21T00:50:57.748Z,-3.46
2019-01-21T00:53:26.643Z,-3.62
2019-01-21T00:55:55.588Z,-3.55
2019-01-21T00:58:24.584Z,-3.49
2019-01-21T01:00:53.610Z,-3.38
2019-01-21T01:03:22.511Z,-3.35
2019-01-21T01:05:51.478Z,-3.41
2019-01-21T01:08:20.487Z,-3.40
2019-01-21T01:10:49.478Z,-3.42
2019-01-21T01:13:18.459Z,-3.50
2019-01-21T01:15:47.446Z,-3.44
2019-01-21T01:18:16.640Z,-3.45
2019-01-21T01:20:45.629Z,-3.44
2019-01-21T01:23:14.721Z,-3.47
2019-01-21T01:25:43.696Z,-3.53
2019-01-21T01:28:12.660Z,-3.43
2019-01-21T01:30:41.680Z,-3.43
2019-01-21T01:33:11.135Z,-3.43
2019-01-21T01:35:40.076Z,-3.43
2019-01-21T01:38:09.318Z,-3.40
2019-01-21T01:40:38.189Z,-3.42
2019-01-21T01:43:07.211Z,-3.39
2019-01-21T01:45:36.532Z,-3.39
2019-01-21T01:48:06.148Z,-3.58
2019-01-21T01:50:35.098Z,-3.53
2019-01-21T01:53:04.280Z,-3.44
2019-01-21T01:55:33.811Z,-3.42
2019-01-21T01:58:43.102Z,-3.35
2019-01-21T02:01:31.232Z,-3.43
2019-01-21T02:04:00.124Z,-3.80
2019-01-21T02:09:24.362Z,-3.72
2019-01-21T02:15:07.277Z,-3.62
2019-01-21T02:17:55.697Z,-3.80
2019-01-21T02:20:24.533Z,-3.70
2019-01-21T02:23:14.864Z,-3.70
2019-01-21T02:26:02.834Z,-3.77
2019-01-21T02:28:53.623Z,-3.72
2019-01-21T02:32:00.838Z,-3.75
2019-01-21T02:34:51.599Z,-3.63
2019-01-21T02:37:58.861Z,-3.69
2019-01-21T02:40:49.208Z,-3.63
2019-01-21T02:43:58.660Z,-3.76
2019-01-21T02:46:43.408Z,-3.83
2019-01-21T02:50:04.508Z,-3.88
2019-01-21T02:53:11.778Z,-3.83
2019-01-21T02:56:23.159Z,-3.91
2019-01-21T02:59:25.870Z,-3.98
2019-01-21T03:02:20.814Z,-4.03
2019-01-21T03:05:26.653Z,-4.11
2019-01-21T03:08:51.702Z,-4.04
2019-01-21T03:11:43.507Z,-3.98
2019-01-21T03:14:40.247Z,-4.03
2019-01-21T03:17:45.581Z,-4.09
2019-01-21T03:20:32.311Z,-4.18
2019-01-21T03:23:41.743Z,-4.08
2019-01-21T03:26:26.302Z,-4.07
2019-01-21T03:29:45.543Z,-4.16
2019-01-21T03:32:54.662Z,-4.20
2019-01-21T03:36:01.624Z,-4.10
2019-01-21T03:39:10.949Z,-4.13
2019-01-21T03:42:22.903Z,-4.20
2019-01-21T03:45:27.486Z,-4.19
2019-01-21T03:48:17.305Z,-4.26
2019-01-21T03:51:31.054Z,-4.26
2019-01-21T03:54:10.519Z,-4.20
2019-01-21T03:57:09.846Z,-4.21
2019-01-21T04:00:15.810Z,-4.11
2019-01-21T04:03:20.931Z,-4.14
2019-01-21T04:06:33.387Z,-4.14
2019-01-21T04:09:32.825Z,-4.20
2019-01-21T04:12:28.800Z,-4.15
2019-01-21T04:15:23.741Z,-4.12
2019-01-21T04:18:32.985Z,-4.14
2019-01-21T04:21:33.557Z,-4.14
2019-01-21T04:24:52.049Z,-4.19
2019-01-21T04:27:44.238Z,-4.26
2019-01-21T04:30:42.597Z,-4.16
2019-01-21T04:33:57.851Z,-4.21
2019-01-21T04:37:09.374Z,-4.21
2019-01-21T04:40:25.409Z,-4.17
2019-01-21T04:43:44.696Z,-4.17
2019-01-21T04:46:54.883Z,-4.08
2019-01-21T04:49:54.664Z,-4.19
2019-01-21T04:52:39.001Z,-4.21
2019-01-21T04:55:44.151Z,-4.27
2019-01-21T04:59:09.754Z,-4.28
2019-01-21T05:02:01.286Z,-4.29
2019-01-21T05:05:09.831Z,-4.30
2019-01-21T05:08:19.519Z,-4.34
2019-01-21T05:11:21.015Z,-4.42
2019-01-21T05:14:03.259Z,-4.43
2019-01-21T05:16:55.167Z,-4.47
2019-01-21T05:19:53.981Z,-4.61
2019-01-21T05:22:39.741Z,-4.50
2019-01-21T05:25:26.181Z,-4.60
2019-01-21T05:28:27.671Z,-4.61
2019-01-21T05:31:25.628Z,-4.57
2019-01-21T05:34:24.797Z,-4.53
2019-01-21T05:37:14.577Z,-4.54
2019-01-21T05:40:15.914Z,-4.51
2019-01-21T05:43:29.117Z,-4.51
2019-01-21T05:46:35.587Z,-4.49
2019-01-21T05:49:41.128Z,-4.50
2019-01-21T05:52:41.004Z,-4.46
2019-01-21T05:55:38.908Z,-4.54
2019-01-21T05:58:43.976Z,-4.56
2019-01-21T06:01:48.955Z,-4.71
2019-01-21T06:04:40.674Z,-4.75
2019-01-21T06:07:43.944Z,-4.72
2019-01-21T06:10:44.271Z,-4.68
2019-01-21T06:14:00.028Z,-4.67
2019-01-21T06:16:53.752Z,-4.84
2019-01-21T06:20:02.643Z,-4.91
2019-01-21T06:22:45.290Z,-4.74
2019-01-21T06:25:39.043Z,-4.93
2019-01-21T06:28:55.157Z,-4.84
2019-01-21T06:32:00.955Z,-4.87
2019-01-21T06:35:13.672Z,-4.82
2019-01-21T06:38:14.164Z,-4.84
2019-01-21T06:41:36.188Z,-4.88
2019-01-21T06:44:55.236Z,-4.89
2019-01-21T06:48:05.576Z,-4.84
2019-01-21T06:51:04.305Z,-4.87
2019-01-21T06:54:14.195Z,-4.83
2019-01-21T06:57:39.225Z,-4.78
2019-01-21T07:00:47.578Z,-4.74
2019-01-21T07:04:12.561Z,-4.62
2019-01-21T07:07:07.751Z,-4.57
2019-01-21T07:09:52.642Z,-4.64
2019-01-21T07:12:35.780Z,-4.71
2019-01-21T07:15:44.463Z,-4.63
2019-01-21T07:18:49.410Z,-4.55
2019-01-21T07:21:59.973Z,-4.46
2019-01-21T07:25:11.215Z,-4.37
2019-01-21T07:28:27.164Z,-4.40
2019-01-21T07:31:13.593Z,-4.35
2019-01-21T07:34:04.124Z,-4.34
2019-01-21T07:36:47.758Z,-4.27
2019-01-21T07:39:49.045Z,-4.26
2019-01-21T07:42:38.713Z,-4.09
2019-01-21T07:45:16.088Z,-4.06
2019-01-21T07:48:19.357Z,-3.94
2019-01-21T07:51:31.525Z,-3.88
2019-01-21T07:54:31.352Z,-3.85
2019-01-21T07:57:27.203Z,-3.66
2019-01-21T08:00:21.924Z,-3.56
2019-01-21T08:03:40.426Z,-3.45
2019-01-21T08:06:25.065Z,-3.37
2019-01-21T08:09:43.392Z,-3.33
2019-01-21T08:12:54.673Z,-3.37
2019-01-21T08:15:56.148Z,-3.28
2019-01-21T08:22:48.260Z,-3.25
2019-01-21T08:26:16.323Z,-3.23
2019-01-21T08:29:10.864Z,-3.10
2019-01-21T08:32:21.433Z,-3.09
2019-01-21T08:35:25.327Z,-3.00
2019-01-21T08:38:24.982Z,-3.01
2019-01-21T08:41:39.013Z,-2.90
2019-01-21T08:44:46.260Z,-2.93
2019-01-21T08:47:58.520Z,-2.88
2019-01-21T08:51:19.795Z,-2.65
2019-01-21T08:54:26.998Z,-2.58
2019-01-21T08:57:34.263Z,-2.64
2019-01-21T09:00:41.579Z,-2.52
2019-01-21T09:06:47.920Z,-2.45
2019-01-21T09:10:09.555Z,-2.39
2019-01-21T09:13:16.818Z,-2.35
2019-01-21T09:16:09.608Z,-2.26
2019-01-21T09:19:00.631Z,-2.29
2019-01-21T09:22:10.886Z,-2.24
2019-01-21T09:25:18.403Z,-2.23
2019-01-21T09:31:21.706Z,-2.18
2019-01-21T09:34:28.938Z,-2.14
2019-01-21T09:37:45.880Z,-2.15
2019-01-21T09:40:53.116Z,-2.09
2019-01-21T09:44:00.326Z,-2.01
2019-01-21T09:46:48.463Z,-1.93
2019-01-21T09:49:35.810Z,-1.98
2019-01-21T09:52:23.843Z,-1.98
2019-01-21T10:01:58.167Z,-1.60
2019-01-21T10:04:50.466Z,-1.68
2019-01-21T10:07:57.720Z,-1.75
2019-01-21T10:14:06.079Z,-1.77
2019-01-21T10:17:13.312Z,-1.71
2019-01-21T10:19:52.667Z,-1.67
2019-01-21T10:22:59.897Z,-1.65
2019-01-21T10:26:07.163Z,-1.61
2019-01-21T10:29:18.289Z,-1.62
2019-01-21T10:35:20.172Z,-1.55
2019-01-21T10:38:39.258Z,-1.52
2019-01-21T10:41:50.579Z,-1.44
2019-01-21T10:44:57.767Z,-1.53
2019-01-21T10:47:32.567Z,-1.59
2019-01-21T10:50:39.770Z,-1.41
2019-01-21T10:53:47.025Z,-1.38
2019-01-21T10:57:01.503Z,-1.33
2019-01-21T10:59:53.385Z,-1.35
2019-01-21T11:03:00.613Z,-1.42
2019-01-21T11:05:54.647Z,-1.47
2019-01-21T11:09:02.048Z,-1.48
2019-01-21T11:12:09.347Z,-1.48
2019-01-21T11:15:00.792Z,-1.57
2019-01-21T11:24:45.315Z,-1.41
2019-01-21T11:27:52.513Z,-1.29
2019-01-21T11:30:59.782Z,-1.33
2019-01-21T11:34:07.103Z,-1.21
2019-01-21T11:37:14.379Z,-1.13
2019-01-21T11:43:31.525Z,-1.06
2019-01-21T11:46:38.815Z,-1.09
2019-01-21T11:49:46.104Z,-0.98
2019-01-21T11:52:46.325Z,-0.95
2019-01-21T11:55:53.576Z,-0.93
2019-01-21T11:59:00.777Z,-0.86
2019-01-21T12:02:07.998Z,-0.92
2019-01-21T12:08:29.805Z,-0.83
2019-01-21T12:11:21.183Z,-0.76
2019-01-21T12:17:29.928Z,-0.64
2019-01-21T12:20:21.975Z,-0.70
2019-01-21T12:23:29.181Z,-0.59
2019-01-21T12:26:39.917Z,-0.50
2019-01-21T12:29:47.118Z,-0.47
2019-01-21T12:32:54.410Z,-0.48
2019-01-21T12:36:01.647Z,-0.42
2019-01-21T12:39:08.886Z,-0.47
2019-01-21T12:42:16.101Z,-0.45
2019-01-21T12:45:16.989Z,-0.44
2019-01-21T12:48:08.285Z,-0.38
2019-01-21T12:51:15.545Z,-0.26
2019-01-21T12:54:22.810Z,-0.22
2019-01-21T12:57:30.071Z,-0.25
2019-01-21T13:00:22.847Z,-0.14
2019-01-21T13:03:30.103Z,-0.16
2019-01-21T13:06:32.435Z,-0.05
2019-01-21T13:09:47.747Z,-0.06
2019-01-21T13:12:54.963Z,-0.11
2019-01-21T13:16:02.208Z,-0.09
2019-01-21T13:19:09.432Z,-0.15
2019-01-21T13:22:24.885Z,-0.12
2019-01-21T13:25:19.273Z,-0.09
2019-01-21T13:28:12.289Z,-0.08
2019-01-21T13:31:24.950Z,-0.06
2019-01-21T13:34:32.202Z,-0.06
2019-01-21T13:37:39.432Z,-0.04
2019-01-21T13:40:41.222Z,0.04
2019-01-21T13:43:36.763Z,-0.03
2019-01-21T13:46:44.010Z,0.15
2019-01-21T13:50:04.832Z,0.05
2019-01-21T13:53:12.226Z,0.15
2019-01-21T13:56:07.603Z,0.05
2019-01-21T13:59:14.890Z,0.05
2019-01-21T14:02:05.445Z,0.02
2019-01-21T14:05:12.792Z,0.11
2019-01-21T14:08:19.990Z,0.15
2019-01-21T14:11:27.252Z,0.22
2019-01-21T14:14:22.371Z,0.24
2019-01-21T14:17:34.496Z,0.33
2019-01-21T14:20:48.417Z,0.32
2019-01-21T14:23:55.675Z,0.32
2019-01-21T14:27:09.874Z,0.39
2019-01-21T14:30:20.563Z,0.36
2019-01-21T14:33:27.788Z,0.38
2019-01-21T14:36:35.012Z,0.38
2019-01-21T14:39:42.298Z,0.34
2019-01-21T14:42:49.529Z,0.31
2019-01-21T14:45:56.778Z,0.42
2019-01-21T14:49:04.863Z,0.39
2019-01-21T14:52:12.987Z,0.35
2019-01-21T14:55:20.259Z,0.35
2019-01-21T14:58:27.467Z,0.27
2019-01-21T15:01:34.710Z,0.30
2019-01-21T15:04:41.980Z,0.23
2019-01-21T15:07:49.261Z,0.16
2019-01-21T15:10:56.497Z,0.13
2019-01-21T15:14:03.735Z,0.33
2019-01-21T15:17:11.035Z,0.32
2019-01-21T15:20:10.911Z,0.33
2019-01-21T15:23:02.237Z,0.23
2019-01-21T15:26:09.467Z,0.26
2019-01-21T15:29:16.685Z,0.30
2019-01-21T15:32:23.937Z,0.38
2019-01-21T15:35:31.156Z,0.41
2019-01-21T15:38:38.384Z,0.43
2019-01-21T15:41:45.691Z,0.38
2019-01-21T15:44:36.119Z,0.31
2019-01-21T15:47:43.351Z,0.28
2019-01-21T15:50:50.583Z,0.37
2019-01-21T15:53:57.815Z,0.40
2019-01-21T16:00:39.316Z,0.34
2019-01-21T16:03:46.598Z,0.36
2019-01-21T16:06:53.838Z,0.37
2019-01-21T16:10:01.043Z,0.36
2019-01-21T16:13:13.540Z,0.37
2019-01-21T16:16:20.765Z,0.46
2019-01-21T16:19:28.095Z,0.47
2019-01-21T16:22:35.301Z,0.44
2019-01-21T16:25:42.593Z,0.36
2019-01-21T16:28:52.612Z,0.45
2019-01-21T16:31:51.987Z,0.50
2019-01-21T16:34:44.548Z,0.45
2019-01-21T16:37:45.080Z,0.34
2019-01-21T16:40:36.774Z,0.36
2019-01-21T16:43:05.807Z,0.28
2019-01-21T16:45:34.777Z,0.36
2019-01-21T16:48:03.816Z,0.49
2019-01-21T16:50:32.820Z,0.55
2019-01-21T16:53:01.809Z,0.57
2019-01-21T16:55:30.785Z,0.48
2019-01-21T16:57:59.904Z,0.52
2019-01-21T17:00:28.849Z,0.63
2019-01-21T17:02:57.863Z,0.60
2019-01-21T17:05:26.976Z,0.50
2019-01-21T17:07:57.177Z,0.49
2019-01-21T17:10:26.219Z,0.51
2019-01-21T17:12:55.315Z,0.51
2019-01-21T17:15:24.404Z,0.60
2019-01-21T17:17:53.539Z,0.57
2019-01-21T17:20:22.790Z,0.60
2019-01-21T17:22:51.728Z,0.59
2019-01-21T17:25:20.802Z,0.67
2019-01-21T17:27:50.004Z,0.74
2019-01-21T17:30:19.278Z,0.64
2019-01-21T17:32:48.269Z,0.78
2019-01-21T17:35:17.348Z,0.76
2019-01-21T17:37:46.276Z,0.70
2019-01-21T17:40:16.908Z,0.69
2019-01-21T17:42:45.910Z,0.70
2019-01-21T17:45:17.236Z,0.63
2019-01-21T17:47:46.199Z,0.72
2019-01-21T17:51:00.405Z,0.67
2019-01-21T17:53:29.296Z,0.63
2019-01-21T17:55:58.206Z,0.71
2019-01-21T17:59:03.744Z,0.65
2019-01-21T18:01:35.749Z,0.74
2019-01-21T18:04:03.663Z,0.74
2019-01-21T18:06:32.971Z,0.85
2019-01-21T18:09:02.233Z,0.86
2019-01-21T18:11:31.179Z,0.77
2019-01-21T18:14:00.263Z,0.84
2019-01-21T18:16:29.243Z,0.89
2019-01-21T18:18:58.258Z,0.86
2019-01-21T18:21:27.441Z,0.93
2019-01-21T18:23:56.516Z,0.97
2019-01-21T18:26:25.658Z,0.96
2019-01-21T18:28:54.769Z,0.94
2019-01-21T18:31:24.105Z,1.00
2019-01-21T18:33:53.137Z,0.92
2019-01-21T18:36:22.182Z,1.01
2019-01-21T18:38:51.325Z,0.91
2019-01-21T18:41:20.365Z,0.89
2019-01-21T18:43:49.497Z,0.99
2019-01-21T18:46:18.785Z,1.04
2019-01-21T18:48:47.765Z,1.04
2019-01-21T18:51:16.783Z,1.01
2019-01-21T18:53:45.782Z,0.99
2019-01-21T18:56:14.764Z,1.02
2019-01-21T18:58:43.750Z,1.03
2019-01-21T19:01:12.798Z,1.07
2019-01-21T19:03:41.841Z,1.02
2019-01-21T19:06:10.847Z,1.06
2019-01-21T19:08:39.808Z,1.02
2019-01-21T19:11:08.862Z,1.03
2019-01-21T19:13:37.796Z,0.97
2019-01-21T19:16:06.817Z,1.00
2019-01-21T19:18:35.712Z,0.94
2019-01-21T19:21:04.731Z,1.02
2019-01-21T19:23:33.720Z,0.98
2019-01-21T19:26:03.010Z,0.93
2019-01-21T19:28:33.257Z,0.94
2019-01-21T19:31:02.187Z,0.83
2019-01-21T19:33:32.229Z,0.88
2019-01-21T19:36:01.239Z,0.85
2019-01-21T19:38:30.207Z,0.86
2019-01-21T19:40:59.267Z,0.80
2019-01-21T19:43:28.205Z,0.81
2019-01-21T19:45:57.257Z,0.82
2019-01-21T19:48:26.275Z,0.88
2019-01-21T19:50:56.157Z,0.90
2019-01-21T19:53:25.299Z,0.90
2019-01-21T19:55:54.609Z,0.80
2019-01-21T19:58:23.832Z,0.92
2019-01-21T20:00:53.064Z,0.93
2019-01-21T20:03:22.429Z,0.88
2019-01-21T20:05:51.654Z,0.79
2019-01-21T20:08:20.869Z,0.75
2019-01-21T20:10:49.948Z,0.73
2019-01-21T20:13:18.948Z,0.85
2019-01-21T20:15:47.975Z,0.79
2019-01-21T20:18:17.268Z,0.77
2019-01-21T20:20:46.433Z,0.72
2019-01-21T20:23:15.487Z,0.80
2019-01-21T20:25:44.616Z,0.77
2019-01-21T20:28:13.849Z,0.64
2019-01-21T20:30:42.883Z,0.62
2019-01-21T20:33:11.991Z,0.57
2019-01-21T20:35:41.351Z,0.60
2019-01-21T20:38:10.377Z,0.63
2019-01-21T20:40:39.523Z,0.58
2019-01-21T20:43:08.564Z,0.56
2019-01-21T20:45:37.732Z,0.54
2019-01-21T20:48:06.889Z,0.54
2019-01-21T20:50:36.654Z,0.51
2019-01-21T20:53:05.973Z,0.60
2019-01-21T20:55:35.115Z,0.57
2019-01-21T20:58:04.448Z,0.67
2019-01-21T21:00:33.605Z,0.62
2019-01-21T21:03:02.803Z,0.62
2019-01-21T21:05:32.182Z,0.55
2019-01-21T21:08:01.803Z,0.63
2019-01-21T21:10:31.373Z,0.56
2019-01-21T21:13:01.109Z,0.51
2019-01-21T21:15:32.520Z,0.55
2019-01-21T21:18:02.090Z,0.57
2019-01-21T21:20:31.460Z,0.55
2019-01-21T21:23:00.899Z,0.49
2019-01-21T21:25:30.210Z,0.48
2019-01-21T21:27:59.683Z,0.58
2019-01-21T21:30:31.591Z,0.57
2019-01-21T21:33:00.864Z,0.55
2019-01-21T21:35:32.793Z,0.58
2019-01-21T21:38:02.119Z,0.53
2019-01-21T21:40:31.648Z,0.60
2019-01-21T21:43:01.235Z,0.57
2019-01-21T21:45:30.582Z,0.52
2019-01-21T21:48:01.251Z,0.57
2019-01-21T21:50:32.677Z,0.52
2019-01-21T21:53:01.895Z,0.48
2019-01-21T21:55:31.263Z,0.45
2019-01-21T21:58:00.538Z,0.56
2019-01-21T22:00:30.253Z,0.53
2019-01-21T22:02:59.645Z,0.45
2019-01-21T22:05:28.825Z,0.45
2019-01-21T22:07:58.056Z,0.47
2019-01-21T22:10:28.985Z,0.42
2019-01-21T22:12:58.406Z,0.34
2019-01-21T22:15:28.061Z,0.41
2019-01-21T22:17:57.291Z,0.41
2019-01-21T22:20:26.859Z,0.42
2019-01-21T22:22:56.096Z,0.38
2019-01-21T22:25:25.184Z,0.38
2019-01-21T22:27:54.094Z,0.38
2019-01-21T22:30:27.662Z,0.37
2019-01-21T22:32:56.883Z,0.34
2019-01-21T22:38:34.447Z,0.35
2019-01-21T22:41:22.381Z,0.38
2019-01-21T22:44:10.528Z,0.37
2019-01-21T22:46:58.645Z,0.42
2019-01-21T22:49:46.814Z,0.42
2019-01-21T22:55:22.826Z,0.48
2019-01-21T22:58:10.941Z,0.45
2019-01-21T23:01:23.621Z,0.43
2019-01-21T23:04:13.493Z,0.45
2019-01-21T23:06:42.480Z,0.47
2019-01-21T23:09:11.476Z,0.40
2019-01-21T23:11:40.378Z,0.46
2019-01-21T23:14:09.422Z,0.39
2019-01-21T23:16:38.402Z,0.46
2019-01-21T23:19:07.335Z,0.48
2019-01-21T23:21:36.376Z,0.44
2019-01-21T23:24:05.721Z,0.44
2019-01-21T23:26:34.946Z,0.46
2019-01-21T23:29:04.130Z,0.47
2019-01-21T23:31:33.069Z,0.47
2019-01-21T23:34:01.958Z,0.48
2019-01-21T23:36:30.816Z,0.45
2019-01-21T23:39:00.634Z,0.40
2019-01-21T23:41:29.572Z,0.36
2019-01-21T23:43:58.573Z,0.42
2019-01-21T23:46:27.515Z,0.41
2019-01-21T23:48:56.426Z,0.39
2019-01-21T23:51:25.447Z,0.36
2019-01-21T23:53:54.283Z,0.44
2019-01-21T23:56:23.289Z,0.39
2019-01-21T23:58:52.237Z,0.53
